Главная страница
METAR-TAF:

METAR-TAF

Аэропорты :

Рига, Латвия

широта: 56-55N, долгота: 023-58E, высота над уровнем моря: 10 м

Текущие метеонаблюдения

Эта сводка был подготовлена 9 минут назад, в 04:20 UTC
Ветер 6 Узел от северный
Температура -15°C
Влажность 92%
Давление 1031 hPa
Видимость: 9000 м
Отдельные облака на высоте 300 фута

METAR: EVRA 240420Z 01006KT 9000 SCT003 M15/M16 Q1031 R36/490195 NOSIG

Время: 06:29 (04:29 UTC)

Прогноз

Эта сводка был подготовлена 2 часа и 29 минут назад, в 02:00 UTC
Прогноз действительный с 24-го 03 UTC до 25-го 03 UTC
Ветер 7 Узел от северо-северо-восточный
Видимость 10 км и более
Рассеянная облачность на высоте 2000 фута
временами
С 24-го 03 UTC до 24-го 12 UTC
Рассеянная облачность на высоте 1000 фута
Вероятность 40% :
временами
С 24-го 03 UTC до 24-го 07 UTC
Видимость: 0700 м
переохлажденный туман

TAF: EVRA 240200Z 2403/2503 03007KT 9999 BKN020 TEMPO 2403/2412 BKN010 PROB40 TEMPO 2403/2407 0700 FZFG

Метеонаблюдения и прогнозы для более 4000 аэропортов (сводки METAR и TAF).

Имеющиеся станции представлены на карте желтыми и красными точками.

Чтобы увидеть название станции, наведите на нее мышь.

Затем щелкните, чтобы увидеть метеонаблюдения и метеопрогнозы.

Управление картой: чтобы увеличить масштаб, щелкните зеленые кнопки с черным крестиком; чтобы уменьшить масштаб, щелкните зеленую кнопку с тире; для просмотра соседних карт щелкайте зеленые стрелки.


METAR-TAF: